Time;durP1;ratioP1;P1;durP2;ratioP2;P2;SDS_P1;SDS_P2;PMS_P1;PMS_P2;Temp;Humidity;BMP_temperature;BMP_pressure;BME280_temperature;BME280_humidity;BME280_pressure;Samples;Min_cycle;Max_cycle;Signal;HPM_P1;HPM_P2
2021/11/25 06:45:00;;;;;;;107.27;65.40;;;;;;;-0.26;92.69;98295.66;1871656;76;28064;-61
2021/11/25 06:47:27;;;;;;;84.58;53.08;;;;;;;-0.23;92.69;98295.23;1828354;78;20852;-63
2021/11/25 06:49:54;;;;;;;81.85;43.45;;;;;;;-0.12;92.65;98294.53;1827811;78;21114;-60
2021/11/25 06:52:21;;;;;;;68.70;36.98;;;;;;;0.02;92.50;98296.57;1827936;78;20856;-60
2021/11/25 06:54:48;;;;;;;60.30;34.35;;;;;;;0.18;92.35;98285.98;1825596;77;21402;-62
2021/11/25 06:57:14;;;;;;;61.73;35.68;;;;;;;0.32;92.16;98282.20;1814389;77;20892;-63
2021/11/25 06:59:41;;;;;;;49.77;35.13;;;;;;;0.49;91.96;98284.06;1820799;78;20872;-59
2021/11/25 07:02:08;;;;;;;58.17;37.83;;;;;;;0.65;91.75;98287.94;1827867;78;21736;-62
2021/11/25 07:04:35;;;;;;;59.90;38.83;;;;;;;0.82;91.45;98291.61;1827798;78;20908;-60
2021/11/25 07:07:03;;;;;;;65.62;41.85;;;;;;;0.93;91.03;98285.59;1805276;78;21006;-61
2021/11/25 07:09:30;;;;;;;57.60;36.77;;;;;;;1.05;90.70;98283.81;1795600;80;20884;-60
2021/11/25 07:11:57;;;;;;;54.05;36.28;;;;;;;1.19;90.25;98287.89;1795487;79;20922;-63
2021/11/25 07:14:24;;;;;;;51.92;34.80;;;;;;;1.27;89.94;98275.69;1797537;78;21116;-61
2021/11/25 07:16:51;;;;;;;52.13;33.53;;;;;;;1.38;89.47;98272.81;1819918;77;20939;-63
2021/11/25 07:19:18;;;;;;;66.00;41.48;;;;;;;1.48;88.95;98273.59;1817997;77;21550;-63
2021/11/25 07:21:45;;;;;;;56.15;36.65;;;;;;;1.59;88.68;98268.34;1820350;77;20973;-63
2021/11/25 07:24:12;;;;;;;48.85;33.85;;;;;;;1.73;88.29;98264.98;1800963;78;21429;-60
2021/11/25 07:26:39;;;;;;;45.85;31.57;;;;;;;1.84;87.70;98258.39;1823317;78;21113;-60
2021/11/25 07:29:07;;;;;;;37.63;26.75;;;;;;;1.90;87.17;98260.14;1821788;78;20913;-63
2021/11/25 07:31:34;;;;;;;48.25;31.52;;;;;;;2.01;86.87;98256.70;1823806;78;20961;-57
2021/11/25 07:34:02;;;;;;;47.03;32.73;;;;;;;2.12;86.42;98248.47;1822728;77;21229;-62
2021/11/25 07:36:29;;;;;;;46.05;30.48;;;;;;;2.23;86.00;98249.01;1824392;78;20966;-62
2021/11/25 07:38:57;;;;;;;52.75;29.48;;;;;;;2.36;85.61;98250.08;1824933;78;21226;-57
2021/11/25 07:41:25;;;;;;;41.63;27.17;;;;;;;2.49;84.83;98255.14;1824327;78;21010;-59
2021/11/25 07:43:53;;;;;;;37.80;26.48;;;;;;;2.54;84.32;98247.83;1820123;78;20996;-62
2021/11/25 07:46:21;;;;;;;35.88;26.70;;;;;;;2.61;83.89;98248.00;1812183;79;20922;-59
2021/11/25 07:48:49;;;;;;;36.00;26.75;;;;;;;2.66;83.19;98238.82;1811976;78;21491;-60
2021/11/25 07:51:16;;;;;;;35.33;24.10;;;;;;;2.71;82.89;98237.61;1805930;78;21119;-59
2021/11/25 07:53:43;;;;;;;29.52;22.95;;;;;;;2.78;82.49;98231.39;1811595;78;21014;-58
2021/11/25 07:56:10;;;;;;;31.55;24.52;;;;;;;2.84;82.13;98230.45;1812139;78;21189;-58
2021/11/25 07:58:38;;;;;;;36.40;27.07;;;;;;;2.86;81.24;98227.04;1808901;78;21033;-60
2021/11/25 08:01:05;;;;;;;31.48;23.98;;;;;;;2.89;81.17;98227.91;1811352;78;21511;-61
2021/11/25 08:03:33;;;;;;;30.75;24.02;;;;;;;2.91;80.47;98223.98;1813476;78;21177;-58
2021/11/25 08:06:00;;;;;;;34.63;24.57;;;;;;;2.89;79.87;98226.06;1809074;78;20977;-58
2021/11/25 08:08:27;;;;;;;28.92;23.35;;;;;;;2.87;79.60;98219.41;1811220;78;21020;-59
2021/11/25 08:10:56;;;;;;;30.23;23.00;;;;;;;2.82;79.23;98218.78;1810039;78;20930;-59
2021/11/25 08:13:24;;;;;;;28.38;20.80;;;;;;;2.84;79.49;98210.60;1814371;78;21109;-62
2021/11/25 08:15:51;;;;;;;32.20;23.07;;;;;;;2.89;79.25;98209.37;1809129;78;21605;-60
2021/11/25 08:18:18;;;;;;;28.80;22.10;;;;;;;2.94;79.18;98212.13;1814502;78;20951;-56
2021/11/25 08:20:45;;;;;;;30.20;22.75;;;;;;;3.01;79.08;98204.85;1812516;78;21110;-60
2021/11/25 08:23:11;;;;;;;32.48;21.90;;;;;;;3.09;79.23;98210.56;1807531;78;21053;-60
2021/11/25 08:25:38;;;;;;;28.95;22.32;;;;;;;3.21;78.45;98207.86;1810574;78;21511;-57
2021/11/25 08:28:05;;;;;;;29.25;23.55;;;;;;;3.29;78.36;98211.45;1811268;78;21449;-59
2021/11/25 08:30:32;;;;;;;26.93;20.55;;;;;;;3.39;78.12;98207.67;1814435;78;21116;-60
2021/11/25 08:32:59;;;;;;;29.12;22.37;;;;;;;3.53;77.79;98195.73;1813023;78;21098;-60
2021/11/25 08:35:26;;;;;;;29.30;22.35;;;;;;;3.65;77.55;98190.35;1814284;78;21027;-56
2021/11/25 08:37:54;;;;;;;29.80;21.55;;;;;;;3.77;76.92;98195.05;1808959;77;21048;-61
2021/11/25 08:40:21;;;;;;;29.52;21.30;;;;;;;3.82;76.15;98191.12;1808140;78;21060;-60
2021/11/25 08:42:47;;;;;;;25.12;18.82;;;;;;;3.86;75.88;98186.97;1809957;78;20941;-59
2021/11/25 08:45:15;;;;;;;27.48;21.62;;;;;;;3.86;74.83;98174.50;1813669;78;21063;-59
2021/11/25 08:47:44;;;;;;;28.73;22.48;;;;;;;3.86;75.27;98174.50;1806816;78;21128;-61
2021/11/25 08:50:12;;;;;;;31.87;20.75;;;;;;;3.91;74.81;98174.58;1810108;77;21042;-59
2021/11/25 08:52:40;;;;;;;28.98;22.30;;;;;;;3.97;74.71;98172.30;1807255;78;21172;-57
2021/11/25 08:55:08;;;;;;;33.33;21.42;;;;;;;3.99;74.20;98167.55;1808569;78;21357;-59
2021/11/25 08:57:37;;;;;;;29.37;21.68;;;;;;;4.01;73.91;98162.00;1809896;78;20992;-60
2021/11/25 09:00:07;;;;;;;31.23;21.35;;;;;;;4.04;73.96;98158.35;1804270;77;21468;-56
2021/11/25 09:02:34;;;;;;;25.30;20.05;;;;;;;4.15;73.94;98154.78;1809388;78;21119;-58
2021/11/25 09:05:01;;;;;;;26.90;20.20;;;;;;;4.29;73.52;98153.09;1815626;78;21126;-58
2021/11/25 09:07:28;;;;;;;31.20;22.37;;;;;;;4.32;72.50;98145.98;1808428;78;20971;-59
2021/11/25 09:09:55;;;;;;;35.25;22.37;;;;;;;4.27;72.22;98142.73;1801800;78;21580;-59
2021/11/25 09:12:22;;;;;;;30.25;21.82;;;;;;;4.28;72.69;98150.17;1809809;77;21002;-58
2021/11/25 09:14:49;;;;;;;29.32;21.15;;;;;;;4.32;71.87;98139.34;1806828;77;21017;-60
2021/11/25 09:17:19;;;;;;;24.37;17.30;;;;;;;4.33;72.23;98137.80;1811237;78;21010;-59
2021/11/25 09:19:46;;;;;;;24.52;17.87;;;;;;;4.42;72.56;98137.63;1814818;78;21013;-62
2021/11/25 09:22:15;;;;;;;27.32;20.08;;;;;;;4.55;72.16;98135.11;1809503;77;21057;-60
2021/11/25 09:24:42;;;;;;;19.55;15.95;;;;;;;4.61;71.27;98130.16;1809881;78;21002;-59
2021/11/25 09:27:09;;;;;;;22.85;18.42;;;;;;;4.57;70.65;98122.42;1812154;78;21475;-62
2021/11/25 09:29:37;;;;;;;22.50;16.55;;;;;;;4.54;70.99;98114.95;1810296;78;21094;-58
2021/11/25 09:32:06;;;;;;;21.95;18.05;;;;;;;4.61;70.86;98120.88;1804151;77;21033;-59
2021/11/25 09:34:33;;;;;;;22.65;17.32;;;;;;;4.65;71.04;98114.02;1810413;77;21010;-58
2021/11/25 09:37:00;;;;;;;27.90;17.65;;;;;;;4.72;70.62;98105.33;1806202;77;21039;-59
2021/11/25 09:39:27;;;;;;;23.07;16.95;;;;;;;4.79;70.73;98096.13;1809834;79;21206;-60
2021/11/25 09:41:55;;;;;;;25.25;16.82;;;;;;;4.89;70.23;98097.27;1809331;79;22345;-58
2021/11/25 09:44:22;;;;;;;23.30;16.77;;;;;;;4.94;69.96;98092.83;1810400;79;20964;-62
2021/11/25 09:46:54;;;;;;;23.12;17.23;;;;;;;4.98;69.66;98084.62;1810783;79;21115;-60
2021/11/25 09:49:22;;;;;;;19.23;15.38;;;;;;;4.99;69.53;98078.28;1778149;79;20942;-58
2021/11/25 09:51:50;;;;;;;21.40;14.58;;;;;;;5.00;69.08;98074.55;1799120;78;21974;-62
2021/11/25 09:54:17;;;;;;;18.37;15.03;;;;;;;5.02;68.56;98068.46;1815666;77;21110;-61
2021/11/25 09:56:44;;;;;;;18.82;15.15;;;;;;;4.98;68.18;98066.05;1816503;77;20919;-60
2021/11/25 09:59:11;;;;;;;22.05;15.40;;;;;;;4.95;68.53;98055.11;1813700;78;20999;-57
2021/11/25 10:01:38;;;;;;;23.10;16.07;;;;;;;4.98;68.86;98054.09;1819775;78;20967;-59
2021/11/25 10:04:06;;;;;;;20.32;15.80;;;;;;;5.08;69.01;98052.05;1812550;78;21035;-62
2021/11/25 10:06:34;;;;;;;19.12;15.85;;;;;;;5.16;68.50;98050.28;1819935;78;21112;-59
2021/11/25 10:09:05;;;;;;;19.07;15.23;;;;;;;5.16;68.15;98049.72;1768241;78;21051;-60
2021/11/25 10:11:39;;;;;;;21.87;16.42;;;;;;;5.16;68.05;98038.33;1777241;78;21576;-60
2021/11/25 10:14:13;;;;;;;25.17;16.35;;;;;;;5.16;68.12;98036.45;1822738;78;20939;-62
2021/11/25 10:16:46;;;;;;;22.10;16.25;;;;;;;5.19;68.01;98034.63;1816458;78;21050;-61
2021/11/25 10:19:17;;;;;;;21.40;16.70;;;;;;;5.20;68.20;98030.92;1813173;78;21831;-60
2021/11/25 10:21:53;;;;;;;19.67;16.30;;;;;;;5.24;68.44;98025.37;1819974;78;21010;-63
2021/11/25 10:24:48;;;;;;;23.18;16.32;;;;;;;5.29;68.28;98024.08;1814591;78;20994;-60
2021/11/25 10:27:27;;;;;;;20.72;17.02;;;;;;;5.33;68.10;98023.83;1815256;78;21125;-62
2021/11/25 10:30:17;;;;;;;22.58;16.75;;;;;;;5.43;68.33;98021.25;1816181;78;21490;-63
2021/11/25 10:32:59;;;;;;;22.25;15.98;;;;;;;5.54;68.22;98016.27;1813933;78;21128;-61
2021/11/25 10:35:41;;;;;;;22.10;16.80;;;;;;;5.61;67.54;98015.22;1804641;78;20962;-57
2021/11/25 10:40:34;;;;;;;18.80;15.78;;;;;;;5.53;67.27;98009.34;1814353;77;21070;-60
2021/11/25 10:43:25;;;;;;;19.40;16.57;;;;;;;5.52;67.37;98004.29;1820422;77;21370;-60
2021/11/25 10:45:53;;;;;;;21.95;16.70;;;;;;;5.48;67.10;98011.98;1814368;77;21044;-60
2021/11/25 10:48:32;;;;;;;20.23;15.88;;;;;;;5.43;67.75;97996.02;1798907;78;21065;-61
2021/11/25 10:50:59;;;;;;;22.60;15.43;;;;;;;5.50;67.51;97991.27;1814204;77;21055;-61
2021/11/25 10:53:26;;;;;;;23.73;15.68;;;;;;;5.57;67.30;97980.94;1809827;78;21014;-58
2021/11/25 10:56:05;;;;;;;21.00;16.60;;;;;;;5.62;67.04;97980.96;1810324;77;21121;-61
2021/11/25 10:58:51;;;;;;;21.60;16.00;;;;;;;5.62;66.57;97972.99;1807811;77;21493;-64
2021/11/25 11:01:35;;;;;;;20.77;15.93;;;;;;;5.59;66.66;97970.31;1811251;78;20905;-64
2021/11/25 11:04:02;;;;;;;18.42;15.70;;;;;;;5.63;66.73;97970.62;1811723;78;20981;-60
2021/11/25 11:06:33;;;;;;;24.35;15.65;;;;;;;5.70;66.39;97969.85;1812289;78;21047;-60
2021/11/25 11:09:00;;;;;;;21.93;16.17;;;;;;;5.73;66.24;97971.97;1805041;78;21101;-63
2021/11/25 11:11:28;;;;;;;24.20;17.98;;;;;;;5.73;66.24;97961.34;1806318;78;21122;-60
2021/11/25 11:16:48;;;;;;;21.70;16.42;;;;;;;5.77;66.47;97957.13;1811384;78;21039;-59
2021/11/25 11:19:13;;;;;;;27.30;18.70;;;;;;;5.84;66.45;97957.69;1809627;78;20998;-59
2021/11/25 11:21:50;;;;;;;22.05;17.25;;;;;;;5.92;66.47;97950.02;1814129;78;21027;-59
2021/11/25 11:24:24;;;;;;;22.62;18.67;;;;;;;6.02;65.66;97950.06;1813342;78;21076;-57
2021/11/25 11:26:58;;;;;;;20.77;16.48;;;;;;;5.99;65.18;97947.11;1811989;78;20959;-63
2021/11/25 11:29:29;;;;;;;22.15;16.50;;;;;;;5.92;65.50;97943.91;1817449;78;21501;-61
2021/11/25 11:31:59;;;;;;;21.93;18.20;;;;;;;5.91;65.91;97943.65;1817029;78;20996;-63
2021/11/25 11:34:26;;;;;;;22.37;18.45;;;;;;;5.94;66.01;97934.61;1803579;77;21502;-63
2021/11/25 11:36:54;;;;;;;22.40;17.17;;;;;;;6.00;65.99;97934.10;1813865;78;21143;-63
2021/11/25 11:39:25;;;;;;;24.32;17.30;;;;;;;6.02;65.82;97926.66;1807852;78;21116;-59
2021/11/25 11:42:00;;;;;;;19.48;16.20;;;;;;;6.01;65.72;97919.73;1814648;78;20990;-58
2021/11/25 11:44:26;;;;;;;20.68;16.27;;;;;;;5.96;65.46;97910.41;1811849;78;20928;-59
2021/11/25 11:47:08;;;;;;;20.90;16.42;;;;;;;5.92;65.34;97899.52;1822613;77;21480;-59
2021/11/25 11:49:36;;;;;;;26.33;18.57;;;;;;;5.92;65.60;97889.41;1825465;78;21101;-59
2021/11/25 11:52:10;;;;;;;23.65;17.92;;;;;;;5.89;65.35;97888.59;1819158;77;21030;-60
2021/11/25 11:54:45;;;;;;;20.70;16.57;;;;;;;5.79;65.15;97880.58;1818246;78;21485;-63
2021/11/25 11:57:38;;;;;;;21.33;16.45;;;;;;;5.66;65.47;97887.17;1820309;78;21103;-60
2021/11/25 12:00:22;;;;;;;22.22;17.57;;;;;;;5.59;65.82;97883.16;1810817;77;21132;-61
2021/11/25 12:02:56;;;;;;;21.48;17.30;;;;;;;5.54;66.22;97880.77;1815188;78;23160;-59
2021/11/25 12:05:47;;;;;;;22.87;18.30;;;;;;;5.57;66.30;97887.94;1816033;78;21505;-60
2021/11/25 12:08:24;;;;;;;23.80;17.10;;;;;;;5.57;66.70;97879.97;1818573;78;20960;-60
2021/11/25 12:11:07;;;;;;;21.20;17.27;;;;;;;5.58;66.90;97866.97;1819776;78;21494;-56
2021/11/25 12:13:54;;;;;;;23.20;16.82;;;;;;;5.58;66.68;97867.77;1815643;78;21058;-60
2021/11/25 12:16:25;;;;;;;19.15;17.00;;;;;;;5.57;66.60;97870.14;1817243;78;21234;-59
2021/11/25 12:18:57;;;;;;;22.37;16.85;;;;;;;5.54;66.49;97868.80;1820713;78;21038;-59
2021/11/25 12:21:44;;;;;;;20.02;17.07;;;;;;;5.56;66.58;97867.77;1822488;78;21396;-57
2021/11/25 12:24:25;;;;;;;23.25;18.23;;;;;;;5.53;66.71;97857.89;1815155;78;21048;-61
2021/11/25 12:27:21;;;;;;;23.18;19.42;;;;;;;5.44;66.69;97858.69;1816284;78;21055;-60
2021/11/25 12:30:06;;;;;;;20.07;17.10;;;;;;;5.30;67.02;97854.36;1815129;78;21900;-60
2021/11/25 12:32:47;;;;;;;23.67;21.15;;;;;;;5.22;67.38;97835.48;1817353;78;20991;-61
2021/11/25 12:35:25;;;;;;;27.70;23.35;;;;;;;5.08;67.56;97844.45;1814954;78;21046;-58
2021/11/25 12:38:02;;;;;;;24.52;19.45;;;;;;;4.87;67.87;97841.95;1817344;78;21093;-58
2021/11/25 12:40:36;;;;;;;26.00;18.23;;;;;;;4.65;68.28;97837.58;1820186;78;21035;-59
2021/11/25 12:43:12;;;;;;;25.08;19.95;;;;;;;4.57;69.05;97835.38;1821717;78;21124;-58
2021/11/25 12:45:53;;;;;;;25.77;20.40;;;;;;;4.59;69.51;97833.27;1791709;78;21031;-60
2021/11/25 12:48:28;;;;;;;24.02;19.17;;;;;;;4.61;69.82;97830.38;1782304;78;21042;-61
2021/11/25 12:51:15;;;;;;;28.38;18.67;;;;;;;4.50;70.14;97827.40;1735820;81;21094;-61
2021/11/25 12:53:57;;;;;;;28.32;21.42;;;;;;;4.36;70.65;97817.73;1739531;82;20948;-58
2021/11/25 12:56:34;;;;;;;28.55;20.17;;;;;;;4.20;71.27;97831.13;1706053;82;21767;-62
2021/11/25 12:59:12;;;;;;;27.65;22.32;;;;;;;3.89;71.21;97830.86;1775501;78;21067;-63
2021/11/25 13:01:48;;;;;;;31.52;24.15;;;;;;;3.51;71.69;97829.67;1787012;78;20950;-60
2021/11/25 13:04:20;;;;;;;29.12;20.48;;;;;;;3.15;72.68;97821.88;1780678;78;21024;-62
2021/11/25 13:06:58;;;;;;;28.70;22.00;;;;;;;2.87;73.61;97822.57;1783588;78;20992;-59
2021/11/25 13:09:31;;;;;;;27.98;20.55;;;;;;;2.57;74.38;97825.58;1779688;78;21716;-58
2021/11/25 13:12:04;;;;;;;27.93;23.73;;;;;;;2.39;75.54;97818.73;1774533;78;21414;-61
2021/11/25 13:14:30;;;;;;;26.68;20.82;;;;;;;2.21;76.39;97825.59;1765287;78;21404;-59
2021/11/25 13:17:00;;;;;;;29.65;21.33;;;;;;;2.06;76.92;97814.77;1777864;78;21084;-60
2021/11/25 13:19:29;;;;;;;30.60;23.40;;;;;;;1.95;77.55;97816.98;1778015;78;21194;-59
2021/11/25 13:21:59;;;;;;;31.93;22.65;;;;;;;1.91;78.06;97822.44;1778336;78;21089;-58
2021/11/25 13:24:30;;;;;;;26.80;21.35;;;;;;;1.88;78.57;97822.94;1785237;78;21009;-63
2021/11/25 13:27:09;;;;;;;30.60;21.50;;;;;;;1.77;78.93;97828.55;1777606;78;20929;-63
2021/11/25 13:29:49;;;;;;;28.73;21.15;;;;;;;1.72;79.68;97823.72;1785680;78;20952;-58
2021/11/25 13:32:20;;;;;;;28.40;21.37;;;;;;;1.67;79.85;97811.20;1764330;79;21123;-61
2021/11/25 13:34:53;;;;;;;28.67;21.10;;;;;;;1.62;80.01;97805.05;1783067;78;21764;-59
2021/11/25 13:37:33;;;;;;;29.12;20.80;;;;;;;1.58;80.21;97811.85;1743020;79;21119;-57
2021/11/25 13:40:05;;;;;;;32.78;22.35;;;;;;;1.52;80.53;97802.22;1738226;81;20950;-59
2021/11/25 13:42:37;;;;;;;36.77;25.48;;;;;;;1.49;80.81;97807.97;1735457;81;21125;-60
2021/11/25 13:45:06;;;;;;;32.95;24.05;;;;;;;1.51;81.16;97807.23;1737757;80;20989;-59
2021/11/25 13:47:34;;;;;;;33.88;24.82;;;;;;;1.45;81.25;97792.33;1727303;82;21146;-59
2021/11/25 13:50:13;;;;;;;33.63;23.40;;;;;;;1.42;81.44;97798.06;1726381;82;21039;-59
2021/11/25 13:52:46;;;;;;;30.50;23.02;;;;;;;1.46;81.58;97793.94;1728853;82;21515;-61
2021/11/25 13:55:17;;;;;;;31.27;21.77;;;;;;;1.47;81.65;97792.89;1726923;82;21043;-57
2021/11/25 13:57:46;;;;;;;30.57;22.32;;;;;;;1.43;81.83;97777.25;1726675;82;21024;-62
2021/11/25 14:00:21;;;;;;;33.40;23.40;;;;;;;1.39;82.07;97773.76;1730481;81;21162;-60
2021/11/25 14:02:48;;;;;;;33.60;25.15;;;;;;;1.35;82.33;97766.55;1773348;80;21123;-58
2021/11/25 14:05:15;;;;;;;36.95;25.68;;;;;;;1.30;82.43;97758.02;1770824;79;21000;-59
